Terminal Aerodrome Forecast
Issued by NWS

Home | Current Version | Previous Version | Text Only | Print | Product List | Glossary On
Versions: 1 2 3 4 5 6 7 8 9 10 11 12 13 14 15 16 17 18 19 20 21 22 23 24 25 26
000
FTUS42 KMHX 202330
TAFISO
TAF
KISO 202330Z 2100/2124 04006KT 5SM SHRA BR OVC007
     FM210400 09006KT 5SM SHRA BR OVC015
     FM210900 21005KT P6SM BKN008
     FM211500 25010G17KT P6SM BKN015
     FM211900 26009KT P6SM BKN090
      AMD LTD TO CLD VIS AND WIND=

USA.gov is the U.S. government's official web portal to all federal, state and local government web resources and services.